Time;durP1;ratioP1;P1;durP2;ratioP2;P2;SDS_P1;SDS_P2;PMS_P1;PMS_P2;Temp;Humidity;BMP_temperature;BMP_pressure;BME280_temperature;BME280_humidity;BME280_pressure;Samples;Min_cycle;Max_cycle;Signal;HPM_P1;HPM_P2
2022/07/05 00:01:13;;;;;;;2.63;1.70;;;;;;;;;;5054730;28;20690;-74
2022/07/05 00:03:40;;;;;;;4.43;1.97;;;;;;;;;;5052847;28;20322;-75
2022/07/05 00:06:07;;;;;;;4.17;1.73;;;;;;;;;;5053071;28;20204;-75
2022/07/05 00:08:34;;;;;;;3.33;1.60;;;;;;;;;;5052622;28;20280;-75
2022/07/05 00:11:02;;;;;;;4.17;1.80;;;;;;;;;;5053235;28;20634;-74
2022/07/05 00:13:29;;;;;;;4.33;1.87;;;;;;;;;;5052803;28;20315;-75
2022/07/05 00:15:56;;;;;;;2.33;1.70;;;;;;;;;;5059810;28;20283;-75
2022/07/05 00:18:24;;;;;;;3.13;1.90;;;;;;;;;;5080450;28;20295;-75
2022/07/05 00:20:52;;;;;;;1.97;1.53;;;;;;;;;;5093229;28;20256;-75
2022/07/05 00:23:20;;;;;;;5.20;2.00;;;;;;;;;;5084181;28;20300;-75
2022/07/05 00:25:48;;;;;;;3.87;1.77;;;;;;;;;;5072355;28;20633;-75
2022/07/05 00:28:15;;;;;;;3.23;2.00;;;;;;;;;;5072768;28;20666;-75
2022/07/05 00:30:43;;;;;;;3.67;1.97;;;;;;;;;;5072684;28;20196;-75
2022/07/05 00:33:11;;;;;;;2.93;1.80;;;;;;;;;;5072456;28;20220;-75
2022/07/05 00:35:41;;;;;;;3.50;1.53;;;;;;;;;;5072418;28;20199;-75
2022/07/05 00:38:08;;;;;;;3.27;1.80;;;;;;;;;;5072738;28;20208;-75
2022/07/05 00:40:35;;;;;;;4.43;1.80;;;;;;;;;;5054376;28;20289;-75
2022/07/05 00:43:03;;;;;;;3.70;1.60;;;;;;;;;;5072598;28;20282;-75
2022/07/05 00:45:30;;;;;;;4.17;1.90;;;;;;;;;;5072417;28;20226;-74
2022/07/05 00:47:57;;;;;;;2.23;1.87;;;;;;;;;;5072781;28;20285;-75
2022/07/05 00:50:24;;;;;;;3.87;1.60;;;;;;;;;;5072872;28;20345;-75
2022/07/05 00:52:56;;;;;;;3.60;1.80;;;;;;;;;;5071794;28;20232;-74
2022/07/05 00:55:23;;;;;;;3.03;1.73;;;;;;;;;;5056737;28;20317;-74
2022/07/05 00:57:50;;;;;;;2.33;1.70;;;;;;;;;;5078472;28;20281;-75
2022/07/05 01:00:18;;;;;;;1.87;1.77;;;;;;;;;;5058758;28;20211;-75
2022/07/05 01:02:45;;;;;;;4.50;2.13;;;;;;;;;;5052414;28;20199;-74
2022/07/05 01:05:13;;;;;;;2.50;2.30;;;;;;;;;;5051974;28;20645;-74
2022/07/05 01:07:40;;;;;;;3.40;2.10;;;;;;;;;;5052253;28;20632;-75
2022/07/05 01:10:10;;;;;;;2.73;1.90;;;;;;;;;;5052364;28;20638;-74
2022/07/05 01:12:39;;;;;;;3.03;2.10;;;;;;;;;;5054941;28;20547;-74
2022/07/05 01:15:06;;;;;;;3.33;1.83;;;;;;;;;;5056250;28;20266;-74
2022/07/05 01:17:35;;;;;;;2.43;1.93;;;;;;;;;;5056263;28;20245;-75
2022/07/05 01:20:03;;;;;;;4.43;2.03;;;;;;;;;;5061040;28;20214;-74
2022/07/05 01:22:40;;;;;;;5.20;2.30;;;;;;;;;;5076227;28;20199;-75
2022/07/05 01:25:08;;;;;;;4.83;2.20;;;;;;;;;;5076206;28;20624;-75
2022/07/05 01:27:35;;;;;;;3.90;2.17;;;;;;;;;;5095546;28;20245;-75
2022/07/05 01:30:03;;;;;;;2.67;1.87;;;;;;;;;;5096258;28;20606;-75
2022/07/05 01:32:30;;;;;;;3.43;2.00;;;;;;;;;;5096404;28;20250;-74
2022/07/05 01:34:57;;;;;;;2.60;1.80;;;;;;;;;;5096038;28;20218;-74
2022/07/05 01:37:24;;;;;;;3.10;2.10;;;;;;;;;;5096158;28;20252;-75
2022/07/05 01:39:54;;;;;;;2.73;1.90;;;;;;;;;;5096080;28;20234;-74
2022/07/05 01:42:21;;;;;;;3.23;1.77;;;;;;;;;;5095960;28;20263;-74
2022/07/05 01:44:48;;;;;;;2.73;2.00;;;;;;;;;;5095797;28;20294;-74
2022/07/05 01:47:17;;;;;;;3.57;1.93;;;;;;;;;;5082748;28;20200;-74
2022/07/05 01:49:47;;;;;;;2.90;2.00;;;;;;;;;;5037689;28;20294;-74
2022/07/05 01:52:14;;;;;;;1.93;1.83;;;;;;;;;;5055046;28;20269;-74
2022/07/05 01:54:43;;;;;;;2.50;2.27;;;;;;;;;;5064547;28;20218;-74
2022/07/05 01:57:11;;;;;;;2.97;1.70;;;;;;;;;;5076364;28;20645;-74
2022/07/05 01:59:39;;;;;;;2.10;1.90;;;;;;;;;;5075592;28;20562;-74
2022/07/05 02:02:06;;;;;;;4.93;1.90;;;;;;;;;;5075595;28;20233;-74
2022/07/05 02:04:34;;;;;;;4.63;2.13;;;;;;;;;;5074707;28;20234;-75
2022/07/05 02:07:05;;;;;;;2.93;2.00;;;;;;;;;;5075237;28;20278;-75
2022/07/05 02:09:32;;;;;;;2.87;2.10;;;;;;;;;;5075179;28;20237;-74
2022/07/05 02:11:59;;;;;;;3.20;1.80;;;;;;;;;;5075242;28;20295;-74
2022/07/05 02:14:27;;;;;;;3.13;1.63;;;;;;;;;;5074874;28;20312;-75
2022/07/05 02:16:55;;;;;;;4.00;2.07;;;;;;;;;;5075446;28;20285;-74
2022/07/05 02:19:22;;;;;;;3.13;2.00;;;;;;;;;;5074880;28;20263;-74
2022/07/05 02:21:49;;;;;;;4.70;2.07;;;;;;;;;;5074579;28;20292;-74
2022/07/05 02:24:16;;;;;;;2.40;1.90;;;;;;;;;;5088916;28;20288;-74
2022/07/05 02:26:43;;;;;;;3.90;1.97;;;;;;;;;;5087828;28;20198;-74
2022/07/05 02:29:11;;;;;;;2.00;1.80;;;;;;;;;;5073503;28;20241;-75
2022/07/05 02:31:40;;;;;;;3.80;2.07;;;;;;;;;;5054605;28;20293;-74
2022/07/05 02:34:07;;;;;;;2.63;1.70;;;;;;;;;;5054736;28;20312;-74
2022/07/05 02:36:34;;;;;;;3.80;1.90;;;;;;;;;;5054686;28;20209;-75
2022/07/05 02:39:01;;;;;;;2.60;1.80;;;;;;;;;;5054560;28;20294;-74
2022/07/05 02:41:28;;;;;;;2.83;1.73;;;;;;;;;;5054761;28;20653;-75
2022/07/05 02:43:55;;;;;;;2.90;1.80;;;;;;;;;;5063187;28;20278;-75
2022/07/05 02:46:23;;;;;;;3.93;2.00;;;;;;;;;;5074435;28;20293;-74
2022/07/05 02:48:52;;;;;;;2.27;1.70;;;;;;;;;;5074639;28;20200;-75
2022/07/05 02:51:20;;;;;;;4.83;1.80;;;;;;;;;;5074329;28;20244;-74
2022/07/05 02:53:47;;;;;;;4.73;1.87;;;;;;;;;;5074111;28;20252;-74
2022/07/05 02:56:14;;;;;;;3.77;2.03;;;;;;;;;;5073085;28;20286;-74
2022/07/05 02:58:41;;;;;;;5.47;2.20;;;;;;;;;;5074297;28;20295;-74
2022/07/05 03:01:08;;;;;;;3.20;2.20;;;;;;;;;;5073718;28;20553;-74
2022/07/05 03:03:36;;;;;;;6.77;2.30;;;;;;;;;;5074468;28;20291;-74
2022/07/05 03:06:04;;;;;;;4.27;2.30;;;;;;;;;;5074063;28;20287;-74
2022/07/05 03:08:31;;;;;;;2.73;2.23;;;;;;;;;;5074045;28;20228;-74
2022/07/05 03:10:59;;;;;;;2.20;2.00;;;;;;;;;;5074302;28;20292;-74
2022/07/05 03:13:26;;;;;;;2.50;1.90;;;;;;;;;;5074208;28;20334;-74
2022/07/05 03:15:53;;;;;;;3.47;2.07;;;;;;;;;;5073809;28;20262;-74
2022/07/05 03:18:20;;;;;;;2.00;1.80;;;;;;;;;;5073789;28;20383;-75
2022/07/05 03:20:47;;;;;;;2.20;1.83;;;;;;;;;;5073563;28;20296;-74
2022/07/05 03:23:16;;;;;;;2.57;1.97;;;;;;;;;;5073278;28;20243;-75
2022/07/05 03:25:43;;;;;;;3.20;1.80;;;;;;;;;;5073562;28;20279;-75
2022/07/05 03:28:10;;;;;;;2.10;1.77;;;;;;;;;;5069136;28;20200;-74
2022/07/05 03:30:37;;;;;;;2.27;1.80;;;;;;;;;;5068639;28;20635;-74
2022/07/05 03:33:05;;;;;;;2.60;2.10;;;;;;;;;;5056264;28;20209;-74
2022/07/05 03:35:32;;;;;;;3.77;1.80;;;;;;;;;;5052825;28;20258;-74
2022/07/05 03:37:59;;;;;;;6.30;2.07;;;;;;;;;;5067024;28;20728;-74
2022/07/05 03:40:28;;;;;;;2.30;1.83;;;;;;;;;;5057240;28;20285;-74
2022/07/05 03:42:55;;;;;;;3.33;2.20;;;;;;;;;;5062558;28;20235;-74
2022/07/05 03:45:22;;;;;;;2.50;1.80;;;;;;;;;;5072658;28;20293;-74
2022/07/05 03:47:49;;;;;;;4.67;2.10;;;;;;;;;;5061056;28;20290;-74
2022/07/05 03:50:17;;;;;;;3.33;2.30;;;;;;;;;;5055303;28;20661;-74
2022/07/05 03:52:44;;;;;;;2.27;2.07;;;;;;;;;;5063860;28;20197;-74
2022/07/05 03:55:11;;;;;;;3.00;2.00;;;;;;;;;;5068101;28;20329;-74
2022/07/05 03:57:40;;;;;;;3.70;2.20;;;;;;;;;;5067548;28;20291;-74
2022/07/05 04:00:08;;;;;;;5.63;2.10;;;;;;;;;;5053276;28;20234;-74
2022/07/05 04:02:35;;;;;;;2.47;2.27;;;;;;;;;;5065969;28;20235;-74
2022/07/05 04:05:02;;;;;;;3.40;2.43;;;;;;;;;;5053102;28;20232;-75
2022/07/05 04:07:29;;;;;;;3.90;2.43;;;;;;;;;;5053300;28;20293;-75
2022/07/05 04:09:56;;;;;;;3.80;2.63;;;;;;;;;;5052953;28;20292;-74
2022/07/05 04:12:24;;;;;;;3.47;2.43;;;;;;;;;;5060840;28;20281;-74
2022/07/05 04:14:52;;;;;;;4.03;2.40;;;;;;;;;;5067242;28;20224;-74
2022/07/05 04:17:19;;;;;;;3.60;2.40;;;;;;;;;;5054409;28;20305;-74
2022/07/05 04:19:47;;;;;;;3.50;2.47;;;;;;;;;;5074511;28;20642;-75
2022/07/05 04:22:14;;;;;;;3.70;2.57;;;;;;;;;;5073177;28;20788;-74
2022/07/05 04:27:22;;;;;;;6.27;2.50;;;;;;;;;;5051795;28;20696;-74
2022/07/05 04:29:49;;;;;;;3.57;2.47;;;;;;;;;;5052628;28;20235;-75
2022/07/05 04:32:18;;;;;;;2.90;2.60;;;;;;;;;;5052884;28;20612;-74
2022/07/05 04:34:45;;;;;;;4.37;2.70;;;;;;;;;;5066192;28;20699;-75
2022/07/05 04:37:12;;;;;;;3.23;2.40;;;;;;;;;;5093009;28;20204;-74
2022/07/05 04:39:39;;;;;;;3.10;2.80;;;;;;;;;;5092959;28;20235;-74
2022/07/05 04:42:07;;;;;;;3.50;2.83;;;;;;;;;;5092863;28;20242;-75
2022/07/05 04:44:34;;;;;;;5.53;3.07;;;;;;;;;;5092501;28;20230;-74
2022/07/05 04:47:01;;;;;;;3.43;2.73;;;;;;;;;;5092614;28;20640;-74
2022/07/05 04:49:29;;;;;;;3.37;2.70;;;;;;;;;;5056645;28;20280;-75
2022/07/05 04:51:57;;;;;;;5.30;2.53;;;;;;;;;;5052143;28;20326;-74
2022/07/05 04:54:24;;;;;;;5.07;2.37;;;;;;;;;;5065780;28;20760;-74
2022/07/05 04:56:51;;;;;;;3.50;2.63;;;;;;;;;;5071950;28;20752;-75
2022/07/05 04:59:18;;;;;;;3.93;2.53;;;;;;;;;;5070440;28;20736;-75
2022/07/05 05:01:45;;;;;;;4.50;2.83;;;;;;;;;;5052474;28;20308;-74
2022/07/05 05:04:12;;;;;;;3.70;2.60;;;;;;;;;;5052142;28;20293;-74
2022/07/05 05:06:41;;;;;;;3.43;2.67;;;;;;;;;;5052454;28;20294;-74
2022/07/05 05:09:08;;;;;;;2.87;2.40;;;;;;;;;;5060665;28;20231;-74
2022/07/05 05:11:35;;;;;;;3.80;2.53;;;;;;;;;;5071992;28;20238;-74
2022/07/05 05:14:03;;;;;;;6.03;2.50;;;;;;;;;;5088303;28;20622;-74
2022/07/05 05:16:30;;;;;;;4.67;2.90;;;;;;;;;;5090841;28;20293;-74
2022/07/05 05:18:57;;;;;;;2.50;2.30;;;;;;;;;;5092408;28;20286;-74
2022/07/05 05:21:24;;;;;;;2.77;2.37;;;;;;;;;;5069172;28;20210;-73
2022/07/05 05:23:53;;;;;;;2.40;2.20;;;;;;;;;;5079961;28;20226;-74
2022/07/05 05:26:20;;;;;;;3.13;2.57;;;;;;;;;;5070830;28;20286;-74
2022/07/05 05:28:47;;;;;;;2.90;2.60;;;;;;;;;;5060998;28;20202;-74
2022/07/05 05:31:14;;;;;;;3.87;2.60;;;;;;;;;;5078670;28;20277;-73
2022/07/05 05:33:42;;;;;;;3.00;2.50;;;;;;;;;;5092246;28;20234;-73
2022/07/05 05:36:09;;;;;;;3.87;2.50;;;;;;;;;;5092130;28;20309;-73
2022/07/05 05:38:36;;;;;;;3.67;2.77;;;;;;;;;;5092252;28;20248;-75
2022/07/05 05:41:05;;;;;;;3.13;2.37;;;;;;;;;;5062859;28;20253;-73
2022/07/05 05:43:32;;;;;;;2.83;2.23;;;;;;;;;;5066149;28;20243;-73
2022/07/05 05:46:00;;;;;;;2.70;2.27;;;;;;;;;;5069522;28;20209;-74
2022/07/05 05:48:27;;;;;;;4.07;2.27;;;;;;;;;;5059012;28;20751;-73
2022/07/05 05:50:54;;;;;;;3.13;2.27;;;;;;;;;;5053172;28;20241;-74
2022/07/05 05:53:22;;;;;;;3.80;2.03;;;;;;;;;;5053306;28;20247;-74
2022/07/05 05:55:49;;;;;;;3.70;2.10;;;;;;;;;;5076629;28;20228;-73
2022/07/05 05:58:18;;;;;;;3.57;2.60;;;;;;;;;;5068138;28;20321;-73
2022/07/05 06:00:48;;;;;;;4.00;2.10;;;;;;;;;;5055644;28;20291;-73
2022/07/05 06:03:15;;;;;;;4.37;2.37;;;;;;;;;;5068011;28;20330;-74
2022/07/05 06:05:42;;;;;;;2.80;2.37;;;;;;;;;;5074738;28;20289;-75
2022/07/05 06:08:09;;;;;;;3.47;2.63;;;;;;;;;;5073906;28;20246;-75
2022/07/05 06:10:37;;;;;;;6.50;3.10;;;;;;;;;;5064927;28;20202;-75
2022/07/05 06:13:05;;;;;;;5.17;2.83;;;;;;;;;;5066026;28;20200;-76
2022/07/05 06:15:33;;;;;;;3.10;2.20;;;;;;;;;;5075102;28;20314;-75
2022/07/05 06:18:00;;;;;;;4.57;2.67;;;;;;;;;;5076781;28;20297;-76
2022/07/05 06:20:29;;;;;;;4.37;3.60;;;;;;;;;;5055929;28;20231;-76
2022/07/05 06:22:57;;;;;;;5.03;3.50;;;;;;;;;;5057879;28;20231;-75
2022/07/05 06:25:24;;;;;;;5.33;2.80;;;;;;;;;;5065422;28;20633;-76
2022/07/05 06:27:52;;;;;;;5.50;2.40;;;;;;;;;;5054657;28;20234;-76
2022/07/05 06:30:20;;;;;;;3.73;2.90;;;;;;;;;;5073726;28;20291;-75
2022/07/05 06:32:49;;;;;;;7.17;2.73;;;;;;;;;;5074456;28;20202;-76
2022/07/05 06:35:16;;;;;;;4.43;2.70;;;;;;;;;;5074420;28;20345;-76
2022/07/05 06:37:44;;;;;;;4.38;2.40;;;;;;;;;;5067620;28;20674;-75
2022/07/05 06:40:12;;;;;;;5.53;2.25;;;;;;;;;;5070447;28;20222;-75
2022/07/05 06:42:39;;;;;;;7.53;2.35;;;;;;;;;;5070191;28;20234;-75
2022/07/05 06:45:07;;;;;;;5.80;2.33;;;;;;;;;;5072380;28;20750;-74
2022/07/05 06:47:34;;;;;;;3.35;1.98;;;;;;;;;;5071035;28;20733;-75
2022/07/05 06:50:03;;;;;;;5.07;2.38;;;;;;;;;;5063862;28;20237;-76
2022/07/05 06:52:31;;;;;;;3.58;2.00;;;;;;;;;;5072439;28;20195;-75
2022/07/05 06:54:59;;;;;;;4.88;1.90;;;;;;;;;;5055457;28;20731;-75
2022/07/05 06:57:26;;;;;;;3.42;2.10;;;;;;;;;;5054389;28;20215;-75
2022/07/05 06:59:53;;;;;;;4.15;2.00;;;;;;;;;;5054512;28;20290;-76
2022/07/05 07:02:21;;;;;;;2.83;1.70;;;;;;;;;;5054606;28;20231;-75
2022/07/05 07:04:48;;;;;;;2.22;1.80;;;;;;;;;;5090157;28;20200;-76
2022/07/05 07:10:02;;;;;;;5.07;1.80;;;;;;;;;;5072717;28;20333;-75
2022/07/05 07:12:30;;;;;;;4.15;1.80;;;;;;;;;;5093432;28;20249;-75
2022/07/05 07:14:57;;;;;;;4.22;1.60;;;;;;;;;;5077338;28;20218;-75
2022/07/05 07:17:24;;;;;;;3.42;1.60;;;;;;;;;;5074131;28;20624;-75
2022/07/05 07:19:52;;;;;;;4.10;1.60;;;;;;;;;;5073745;28;20285;-75
2022/07/05 07:22:20;;;;;;;3.10;1.67;;;;;;;;;;5073770;28;20246;-75
2022/07/05 07:24:47;;;;;;;3.70;1.60;;;;;;;;;;5073775;28;20290;-74
2022/07/05 07:27:14;;;;;;;4.25;1.60;;;;;;;;;;5073766;28;20282;-75
2022/07/05 07:29:42;;;;;;;3.28;1.63;;;;;;;;;;5073930;28;20235;-75
2022/07/05 07:32:09;;;;;;;2.47;1.50;;;;;;;;;;5073759;28;20234;-75
2022/07/05 07:34:37;;;;;;;2.00;1.13;;;;;;;;;;5073851;28;20198;-75
2022/07/05 07:37:05;;;;;;;1.67;1.05;;;;;;;;;;5072790;28;20227;-75
2022/07/05 07:39:33;;;;;;;2.80;1.10;;;;;;;;;;5073323;28;20285;-75
2022/07/05 07:42:00;;;;;;;1.42;1.20;;;;;;;;;;5073040;28;20295;-76
2022/07/05 07:44:28;;;;;;;2.33;1.17;;;;;;;;;;5073496;28;20291;-75
2022/07/05 07:46:55;;;;;;;1.75;0.90;;;;;;;;;;5073393;28;20231;-76
2022/07/05 07:49:22;;;;;;;2.53;1.17;;;;;;;;;;5073344;28;20258;-75
2022/07/05 07:51:49;;;;;;;3.42;0.80;;;;;;;;;;5072448;28;20235;-75
2022/07/05 07:54:16;;;;;;;1.50;0.80;;;;;;;;;;5073282;28;20230;-76
2022/07/05 07:56:45;;;;;;;2.97;0.90;;;;;;;;;;5069144;28;20307;-75
2022/07/05 07:59:12;;;;;;;1.17;0.82;;;;;;;;;;5053267;28;20228;-76
2022/07/05 08:01:40;;;;;;;1.98;0.70;;;;;;;;;;5052976;28;20243;-75
2022/07/05 08:04:07;;;;;;;1.23;0.70;;;;;;;;;;5035352;28;20286;-75
2022/07/05 08:06:34;;;;;;;1.73;0.68;;;;;;;;;;5053002;28;20283;-75
2022/07/05 08:09:01;;;;;;;3.30;0.80;;;;;;;;;;5052977;28;20235;-76
2022/07/05 08:11:28;;;;;;;1.95;0.65;;;;;;;;;;5053285;28;20291;-75
2022/07/05 08:13:57;;;;;;;2.15;0.68;;;;;;;;;;5052833;28;20670;-75
2022/07/05 08:16:24;;;;;;;2.83;0.68;;;;;;;;;;5052820;28;20314;-75
2022/07/05 08:21:37;;;;;;;1.50;0.77;;;;;;;;;;5052149;28;20725;-75
2022/07/05 08:24:05;;;;;;;1.85;0.80;;;;;;;;;;5052818;28;20272;-75
2022/07/05 08:26:32;;;;;;;2.75;0.63;;;;;;;;;;5053136;28;20215;-75
2022/07/05 08:29:02;;;;;;;1.27;0.50;;;;;;;;;;5052721;28;20287;-76
2022/07/05 08:31:29;;;;;;;1.92;0.65;;;;;;;;;;5052786;28;20286;-76
2022/07/05 08:33:57;;;;;;;1.45;0.68;;;;;;;;;;5052876;28;20199;-75
2022/07/05 08:36:24;;;;;;;0.60;0.40;;;;;;;;;;5052231;28;20314;-74
2022/07/05 08:38:51;;;;;;;2.10;0.70;;;;;;;;;;5052986;28;20286;-76
2022/07/05 08:41:20;;;;;;;1.80;0.60;;;;;;;;;;5052781;28;20238;-75
2022/07/05 08:43:48;;;;;;;1.52;0.70;;;;;;;;;;5052581;28;20290;-76
2022/07/05 08:46:17;;;;;;;2.05;0.75;;;;;;;;;;5052511;28;20282;-75
2022/07/05 08:48:45;;;;;;;2.55;0.85;;;;;;;;;;5052463;28;20235;-75
2022/07/05 08:51:13;;;;;;;3.63;0.90;;;;;;;;;;5052157;28;20761;-75
2022/07/05 08:53:41;;;;;;;2.10;0.90;;;;;;;;;;5052442;28;20290;-75
2022/07/05 08:56:09;;;;;;;1.50;1.05;;;;;;;;;;5052220;28;20310;-75
2022/07/05 08:58:36;;;;;;;3.78;0.95;;;;;;;;;;5071708;28;20305;-75
2022/07/05 09:01:04;;;;;;;1.73;0.82;;;;;;;;;;5072456;28;20252;-75
2022/07/05 09:03:33;;;;;;;1.35;0.80;;;;;;;;;;5072309;28;20290;-75
2022/07/05 09:06:01;;;;;;;1.50;0.82;;;;;;;;;;5072168;28;20405;-75
2022/07/05 09:08:32;;;;;;;2.05;0.98;;;;;;;;;;5072242;28;20614;-75
2022/07/05 09:11:01;;;;;;;1.42;0.90;;;;;;;;;;5072148;28;20676;-76
2022/07/05 09:13:28;;;;;;;3.28;1.10;;;;;;;;;;5071927;28;20253;-75
2022/07/05 09:15:56;;;;;;;2.72;1.20;;;;;;;;;;5072012;28;20603;-74
2022/07/05 09:18:44;;;;;;;1.85;0.93;;;;;;;;;;5072083;28;20272;-75
2022/07/05 09:21:15;;;;;;;3.38;1.10;;;;;;;;;;5072430;28;20221;-75
2022/07/05 09:23:43;;;;;;;2.55;1.30;;;;;;;;;;5072132;28;20666;-75
2022/07/05 09:26:10;;;;;;;3.22;1.10;;;;;;;;;;5072207;28;20199;-74
2022/07/05 09:28:38;;;;;;;1.48;0.80;;;;;;;;;;5072246;28;20199;-75
2022/07/05 09:31:05;;;;;;;2.28;0.70;;;;;;;;;;5072401;28;20600;-75
2022/07/05 09:33:32;;;;;;;1.30;0.80;;;;;;;;;;5074320;28;20282;-75
2022/07/05 09:36:01;;;;;;;2.17;0.80;;;;;;;;;;5076086;28;20261;-76
2022/07/05 09:38:28;;;;;;;2.65;0.80;;;;;;;;;;5075704;28;20205;-75
2022/07/05 09:40:56;;;;;;;2.38;0.75;;;;;;;;;;5076072;28;20227;-75
2022/07/05 09:43:24;;;;;;;3.10;0.90;;;;;;;;;;5075956;28;20199;-75
2022/07/05 09:45:55;;;;;;;3.22;0.80;;;;;;;;;;5075967;28;20258;-75
2022/07/05 09:48:22;;;;;;;1.42;0.80;;;;;;;;;;5075110;28;20290;-76
2022/07/05 09:50:50;;;;;;;2.50;0.90;;;;;;;;;;5075182;28;20266;-75
2022/07/05 09:53:19;;;;;;;3.00;1.00;;;;;;;;;;5075601;28;20199;-76
2022/07/05 09:56:02;;;;;;;3.17;0.85;;;;;;;;;;5075430;28;20266;-76
2022/07/05 09:58:29;;;;;;;2.17;0.80;;;;;;;;;;5075176;28;20215;-75
2022/07/05 10:00:56;;;;;;;1.77;0.95;;;;;;;;;;5075310;28;20293;-75
2022/07/05 10:03:23;;;;;;;1.80;0.70;;;;;;;;;;5075086;28;20724;-75
2022/07/05 10:05:51;;;;;;;4.20;1.13;;;;;;;;;;5075290;28;20280;-75
2022/07/05 10:08:21;;;;;;;2.40;0.85;;;;;;;;;;5075556;28;20253;-75
2022/07/05 10:10:50;;;;;;;2.22;0.65;;;;;;;;;;5075152;28;20842;-75
2022/07/05 10:13:17;;;;;;;2.42;0.60;;;;;;;;;;5075496;28;20231;-74
2022/07/05 10:15:46;;;;;;;2.42;0.80;;;;;;;;;;5075067;28;20282;-76
2022/07/05 10:18:14;;;;;;;1.73;0.70;;;;;;;;;;5075322;28;20306;-75
2022/07/05 10:20:42;;;;;;;2.63;0.90;;;;;;;;;;5074581;28;20210;-75
2022/07/05 10:23:10;;;;;;;3.47;0.80;;;;;;;;;;5074801;28;20226;-75
2022/07/05 10:25:40;;;;;;;1.17;0.68;;;;;;;;;;5074867;28;20316;-76
2022/07/05 10:28:08;;;;;;;2.38;0.98;;;;;;;;;;5075049;28;20282;-76
2022/07/05 10:30:35;;;;;;;1.55;0.80;;;;;;;;;;5074725;28;20234;-76
2022/07/05 10:33:03;;;;;;;3.10;0.80;;;;;;;;;;5074534;28;20291;-76
2022/07/05 10:35:31;;;;;;;2.35;0.90;;;;;;;;;;5075226;28;20233;-75
2022/07/05 10:37:59;;;;;;;2.80;0.80;;;;;;;;;;5074666;28;20313;-75
2022/07/05 10:40:28;;;;;;;2.45;0.60;;;;;;;;;;5074860;28;20230;-74
2022/07/05 10:42:58;;;;;;;0.93;0.73;;;;;;;;;;5074461;28;20293;-76
2022/07/05 10:45:26;;;;;;;2.30;0.70;;;;;;;;;;5074213;28;20199;-75
2022/07/05 10:48:12;;;;;;;1.80;0.80;;;;;;;;;;5074173;28;20195;-75
2022/07/05 10:50:44;;;;;;;1.85;0.80;;;;;;;;;;5074043;28;20246;-76
2022/07/05 10:53:12;;;;;;;1.00;0.70;;;;;;;;;;5074016;28;20640;-75
2022/07/05 10:55:48;;;;;;;2.70;0.90;;;;;;;;;;5074462;28;20203;-75
2022/07/05 10:58:23;;;;;;;0.90;0.70;;;;;;;;;;5057393;28;20231;-75
2022/07/05 11:01:10;;;;;;;3.42;0.88;;;;;;;;;;5054281;28;20249;-75
2022/07/05 11:03:38;;;;;;;2.38;0.80;;;;;;;;;;5054189;28;20706;-75
2022/07/05 11:06:07;;;;;;;1.98;0.60;;;;;;;;;;5053985;28;20235;-76
2022/07/05 11:09:02;;;;;;;2.45;0.70;;;;;;;;;;5054202;28;20551;-76
2022/07/05 11:11:30;;;;;;;2.33;0.70;;;;;;;;;;5054212;28;20203;-75
2022/07/05 11:14:00;;;;;;;1.00;0.70;;;;;;;;;;5053766;28;20291;-76
2022/07/05 11:16:29;;;;;;;1.83;0.80;;;;;;;;;;5054173;28;20310;-75
2022/07/05 11:19:09;;;;;;;2.58;0.80;;;;;;;;;;5054345;28;20232;-76
2022/07/05 11:21:36;;;;;;;1.27;0.73;;;;;;;;;;5053972;28;20659;-76
2022/07/05 11:24:18;;;;;;;1.95;0.75;;;;;;;;;;5053958;28;20246;-76
2022/07/05 11:26:45;;;;;;;2.45;0.68;;;;;;;;;;5054173;28;20227;-76
2022/07/05 11:29:27;;;;;;;1.00;0.60;;;;;;;;;;5053578;28;20295;-76
2022/07/05 11:32:07;;;;;;;2.00;0.82;;;;;;;;;;5053969;28;20318;-75
2022/07/05 11:34:34;;;;;;;1.88;0.60;;;;;;;;;;5054030;28;20295;-76
2022/07/05 11:37:23;;;;;;;1.63;0.70;;;;;;;;;;5053679;28;20228;-76
2022/07/05 11:40:14;;;;;;;1.02;0.60;;;;;;;;;;5053647;28;20552;-76
2022/07/05 11:42:47;;;;;;;0.63;0.60;;;;;;;;;;5053406;28;20224;-75
2022/07/05 11:45:17;;;;;;;1.98;0.60;;;;;;;;;;5053331;28;20204;-76
2022/07/05 11:47:45;;;;;;;4.35;0.75;;;;;;;;;;5053298;28;20262;-75
2022/07/05 11:50:13;;;;;;;1.95;0.70;;;;;;;;;;5053088;28;20262;-75
2022/07/05 11:52:41;;;;;;;1.25;0.80;;;;;;;;;;5053553;28;20286;-76
2022/07/05 11:55:09;;;;;;;1.23;0.70;;;;;;;;;;5052486;28;20291;-75
2022/07/05 11:57:36;;;;;;;2.10;0.82;;;;;;;;;;5052673;28;20223;-76
2022/07/05 12:00:06;;;;;;;2.15;0.52;;;;;;;;;;5053186;28;20231;-76
2022/07/05 12:02:33;;;;;;;1.20;0.60;;;;;;;;;;5053218;28;20204;-75
2022/07/05 12:05:00;;;;;;;1.92;0.70;;;;;;;;;;5053499;28;20202;-75
2022/07/05 12:07:27;;;;;;;1.50;0.60;;;;;;;;;;5052926;28;20235;-76
2022/07/05 12:12:47;;;;;;;1.75;1.00;;;;;;;;;;5052627;28;20198;-75
2022/07/05 12:15:16;;;;;;;1.88;0.80;;;;;;;;;;5052976;28;20282;-76
2022/07/05 12:17:44;;;;;;;0.60;0.60;;;;;;;;;;5052726;28;20224;-76
2022/07/05 12:20:12;;;;;;;3.17;0.77;;;;;;;;;;5053157;28;20203;-76
2022/07/05 12:22:40;;;;;;;1.00;0.60;;;;;;;;;;5052714;28;20239;-76
2022/07/05 12:25:09;;;;;;;1.20;0.70;;;;;;;;;;5053088;28;20279;-75
2022/07/05 12:27:37;;;;;;;1.77;0.73;;;;;;;;;;5052402;28;20196;-76
2022/07/05 12:30:05;;;;;;;2.05;0.80;;;;;;;;;;5052724;28;20286;-75
2022/07/05 12:32:36;;;;;;;2.40;0.80;;;;;;;;;;5052515;28;20231;-76
2022/07/05 12:35:03;;;;;;;2.25;0.70;;;;;;;;;;5052871;28;20203;-76
2022/07/05 12:37:31;;;;;;;3.15;0.80;;;;;;;;;;5052580;28;20230;-75
2022/07/05 12:40:04;;;;;;;1.10;0.80;;;;;;;;;;5052749;28;20222;-75
2022/07/05 12:42:32;;;;;;;1.42;0.90;;;;;;;;;;5052096;28;20286;-75
2022/07/05 12:45:13;;;;;;;0.90;0.57;;;;;;;;;;5052846;28;20199;-75
2022/07/05 12:47:53;;;;;;;1.23;0.73;;;;;;;;;;5052499;28;20279;-75
2022/07/05 12:50:20;;;;;;;2.03;0.70;;;;;;;;;;5052176;28;20219;-75
2022/07/05 12:53:01;;;;;;;0.98;0.70;;;;;;;;;;5052565;28;20617;-75
2022/07/05 12:58:19;;;;;;;1.08;0.68;;;;;;;;;;5069649;28;20709;-75
2022/07/05 13:00:47;;;;;;;2.15;0.80;;;;;;;;;;5072491;28;20230;-76
2022/07/05 13:03:15;;;;;;;2.45;0.70;;;;;;;;;;5072432;28;20289;-75
2022/07/05 13:05:42;;;;;;;1.48;0.70;;;;;;;;;;5072112;28;20206;-75
2022/07/05 13:08:09;;;;;;;1.75;0.80;;;;;;;;;;5076173;28;20286;-76
2022/07/05 13:10:47;;;;;;;2.05;0.80;;;;;;;;;;5076231;28;20305;-76
2022/07/05 13:13:16;;;;;;;1.30;0.80;;;;;;;;;;5076621;28;20286;-75
2022/07/05 13:15:43;;;;;;;1.83;0.90;;;;;;;;;;5076275;28;20203;-75
2022/07/05 13:18:10;;;;;;;1.45;0.75;;;;;;;;;;5076174;28;21042;-75
2022/07/05 13:20:39;;;;;;;1.38;0.73;;;;;;;;;;5076143;28;20282;-75
2022/07/05 13:23:06;;;;;;;1.83;0.82;;;;;;;;;;5076060;28;20292;-75
2022/07/05 13:25:33;;;;;;;1.23;0.73;;;;;;;;;;5075556;28;20238;-76
2022/07/05 13:28:00;;;;;;;1.55;0.70;;;;;;;;;;5076050;28;20278;-76
2022/07/05 13:30:27;;;;;;;1.42;0.70;;;;;;;;;;5076008;28;20678;-75
2022/07/05 13:32:55;;;;;;;1.40;0.52;;;;;;;;;;5076108;28;20241;-75
2022/07/05 13:35:22;;;;;;;4.15;0.90;;;;;;;;;;5076190;28;20249;-76
2022/07/05 13:37:50;;;;;;;1.95;0.90;;;;;;;;;;5075736;28;20263;-75
2022/07/05 13:40:18;;;;;;;2.67;0.95;;;;;;;;;;5075498;28;20249;-75
2022/07/05 13:42:45;;;;;;;2.25;0.80;;;;;;;;;;5076015;28;20234;-75
2022/07/05 13:45:13;;;;;;;2.50;1.00;;;;;;;;;;5075613;28;20290;-75
2022/07/05 13:47:40;;;;;;;1.10;0.63;;;;;;;;;;5075911;28;20195;-76
2022/07/05 13:52:54;;;;;;;1.73;0.88;;;;;;;;;;5075791;28;20193;-75
2022/07/05 13:55:21;;;;;;;1.77;0.80;;;;;;;;;;5075501;28;20285;-76
2022/07/05 13:57:48;;;;;;;2.55;0.90;;;;;;;;;;5075458;28;20312;-75
2022/07/05 14:00:15;;;;;;;1.65;0.98;;;;;;;;;;5075284;28;20290;-75
2022/07/05 14:02:43;;;;;;;1.38;0.70;;;;;;;;;;5075447;28;20285;-76
2022/07/05 14:05:11;;;;;;;1.17;0.93;;;;;;;;;;5075390;28;20230;-76
2022/07/05 14:07:38;;;;;;;4.03;1.25;;;;;;;;;;5075320;28;20282;-75
2022/07/05 14:10:07;;;;;;;2.28;1.00;;;;;;;;;;5074986;28;20199;-76
2022/07/05 14:12:34;;;;;;;1.70;0.90;;;;;;;;;;5075122;28;20753;-75
2022/07/05 14:15:02;;;;;;;3.22;1.15;;;;;;;;;;5075556;28;20234;-76
2022/07/05 14:17:29;;;;;;;2.30;0.90;;;;;;;;;;5075242;28;20304;-75
2022/07/05 14:19:56;;;;;;;2.88;0.93;;;;;;;;;;5074730;28;20289;-75
2022/07/05 14:22:23;;;;;;;4.47;1.02;;;;;;;;;;5074713;28;20206;-75
2022/07/05 14:24:50;;;;;;;4.50;0.98;;;;;;;;;;5075283;28;20290;-76
2022/07/05 14:27:19;;;;;;;2.88;0.98;;;;;;;;;;5075174;28;20203;-75
2022/07/05 14:29:46;;;;;;;1.63;0.90;;;;;;;;;;5075102;28;20238;-75
2022/07/05 14:32:13;;;;;;;2.05;1.08;;;;;;;;;;5074770;28;20298;-76
2022/07/05 14:34:41;;;;;;;3.38;0.93;;;;;;;;;;5074739;28;20231;-75
2022/07/05 14:37:08;;;;;;;4.25;1.10;;;;;;;;;;5074591;28;20275;-75
2022/07/05 14:39:35;;;;;;;2.63;1.20;;;;;;;;;;5074701;28;20233;-75
2022/07/05 14:42:02;;;;;;;2.90;0.90;;;;;;;;;;5074499;28;20274;-75
2022/07/05 14:44:31;;;;;;;6.53;0.98;;;;;;;;;;5073872;28;20245;-76
2022/07/05 14:46:58;;;;;;;4.47;0.90;;;;;;;;;;5074693;28;20281;-76
2022/07/05 14:49:25;;;;;;;2.88;0.98;;;;;;;;;;5074182;28;20203;-75
2022/07/05 14:51:52;;;;;;;1.02;0.80;;;;;;;;;;5074058;28;20239;-75
2022/07/05 14:54:20;;;;;;;4.97;1.40;;;;;;;;;;5074480;28;20230;-76
2022/07/05 14:56:49;;;;;;;4.35;0.90;;;;;;;;;;5074168;28;20214;-75
2022/07/05 14:59:16;;;;;;;0.82;0.80;;;;;;;;;;5074551;28;20253;-76
2022/07/05 15:01:45;;;;;;;1.63;0.98;;;;;;;;;;5074246;28;20538;-75
2022/07/05 15:04:12;;;;;;;1.80;0.82;;;;;;;;;;5074448;28;20229;-75
2022/07/05 15:06:40;;;;;;;3.78;1.20;;;;;;;;;;5074026;28;20285;-75